Time;durP1;ratioP1;P1;durP2;ratioP2;P2;SDS_P1;SDS_P2;PMS_P1;PMS_P2;Temp;Humidity;BMP_temperature;BMP_pressure;BME280_temperature;BME280_humidity;BME280_pressure;Samples;Min_cycle;Max_cycle;Signal;HPM_P1;HPM_P2
2024/03/03 00:01:59;;;;;;;34.00;18.33;;;;;;;;;;5007907;28;1237379;-58
2024/03/03 00:04:26;;;;;;;33.70;18.98;;;;;;;;;;5051419;28;20055;-56
2024/03/03 00:06:56;;;;;;;33.20;17.33;;;;;;;;;;5050822;28;20151;-57
2024/03/03 00:09:27;;;;;;;29.10;16.13;;;;;;;;;;5056090;28;20157;-56
2024/03/03 00:11:54;;;;;;;32.72;17.95;;;;;;;;;;5049974;28;20075;-53
2024/03/03 00:14:21;;;;;;;34.28;17.50;;;;;;;;;;5051226;28;20092;-57
2024/03/03 00:16:50;;;;;;;31.52;18.60;;;;;;;;;;5056770;28;20150;-58
2024/03/03 00:19:16;;;;;;;30.77;18.13;;;;;;;;;;5060014;28;20671;-57
2024/03/03 00:21:43;;;;;;;34.20;18.48;;;;;;;;;;5057007;28;20091;-55
2024/03/03 00:24:10;;;;;;;34.72;19.45;;;;;;;;;;5053089;28;20077;-57
2024/03/03 00:26:37;;;;;;;35.35;18.67;;;;;;;;;;5054196;28;20068;-58
2024/03/03 00:29:04;;;;;;;32.80;18.13;;;;;;;;;;5049534;28;20645;-58
2024/03/03 00:31:31;;;;;;;32.58;19.58;;;;;;;;;;5052227;28;20041;-56
2024/03/03 00:33:59;;;;;;;34.45;17.52;;;;;;;;;;5052891;28;20113;-55
2024/03/03 00:36:25;;;;;;;34.88;19.75;;;;;;;;;;5050688;28;20084;-58
2024/03/03 00:38:52;;;;;;;30.80;17.63;;;;;;;;;;5054499;28;20080;-54
2024/03/03 00:41:19;;;;;;;32.92;18.20;;;;;;;;;;5051799;28;20124;-58
2024/03/03 00:43:46;;;;;;;33.72;18.65;;;;;;;;;;5053878;28;20492;-58
2024/03/03 00:46:12;;;;;;;27.48;17.13;;;;;;;;;;5051526;28;20500;-57
2024/03/03 00:48:39;;;;;;;31.70;18.50;;;;;;;;;;5051938;28;20099;-55
2024/03/03 00:51:07;;;;;;;29.83;19.27;;;;;;;;;;5051964;28;20457;-57
2024/03/03 00:53:34;;;;;;;29.67;16.83;;;;;;;;;;5048847;28;20080;-55
2024/03/03 00:56:00;;;;;;;32.17;17.80;;;;;;;;;;5059645;28;20143;-58
2024/03/03 00:58:27;;;;;;;34.33;19.33;;;;;;;;;;5051444;28;20120;-55
2024/03/03 01:00:54;;;;;;;31.90;16.85;;;;;;;;;;5047423;28;20080;-58
2024/03/03 01:03:20;;;;;;;30.85;16.98;;;;;;;;;;5050915;28;20091;-57
2024/03/03 01:05:47;;;;;;;31.98;18.27;;;;;;;;;;5050991;28;20119;-58
2024/03/03 01:08:15;;;;;;;29.10;16.75;;;;;;;;;;5051324;28;20037;-57
2024/03/03 01:10:42;;;;;;;30.67;17.27;;;;;;;;;;5055271;28;20175;-57
2024/03/03 01:13:09;;;;;;;29.75;15.73;;;;;;;;;;5050863;28;20045;-57
2024/03/03 01:15:35;;;;;;;31.27;17.20;;;;;;;;;;5051325;28;20048;-57
2024/03/03 01:18:02;;;;;;;30.75;16.67;;;;;;;;;;5046332;28;20562;-58
2024/03/03 01:20:29;;;;;;;32.33;16.50;;;;;;;;;;5051264;28;20049;-57
2024/03/03 01:22:56;;;;;;;30.65;16.65;;;;;;;;;;5051075;28;20045;-55
2024/03/03 01:25:24;;;;;;;30.95;16.02;;;;;;;;;;5050754;28;20079;-57
2024/03/03 01:27:52;;;;;;;29.10;16.10;;;;;;;;;;5052756;28;20484;-57
2024/03/03 01:30:18;;;;;;;30.75;16.05;;;;;;;;;;5047937;28;20041;-56
2024/03/03 01:32:45;;;;;;;32.50;15.95;;;;;;;;;;5050393;28;20072;-54
2024/03/03 01:35:12;;;;;;;31.10;15.85;;;;;;;;;;5052988;28;20176;-55
2024/03/03 01:37:38;;;;;;;31.27;16.52;;;;;;;;;;5052232;28;20114;-57
2024/03/03 01:40:06;;;;;;;28.13;16.90;;;;;;;;;;5051060;28;20133;-57
2024/03/03 01:42:34;;;;;;;32.33;16.33;;;;;;;;;;5053940;28;20431;-60
2024/03/03 01:45:01;;;;;;;29.38;17.13;;;;;;;;;;5051672;28;20141;-55
2024/03/03 01:47:27;;;;;;;28.63;17.17;;;;;;;;;;5050992;28;20484;-54
2024/03/03 01:49:57;;;;;;;28.60;16.45;;;;;;;;;;5050703;28;20148;-55
2024/03/03 01:52:25;;;;;;;27.85;16.25;;;;;;;;;;5050481;28;20077;-58
2024/03/03 01:54:52;;;;;;;27.67;15.77;;;;;;;;;;5049766;28;20102;-54
2024/03/03 01:57:22;;;;;;;23.70;14.70;;;;;;;;;;5047230;28;20479;-55
2024/03/03 01:59:52;;;;;;;26.25;15.15;;;;;;;;;;5048737;28;20044;-57
2024/03/03 02:02:19;;;;;;;29.70;16.55;;;;;;;;;;5046941;28;20515;-55
2024/03/03 02:04:46;;;;;;;26.90;15.38;;;;;;;;;;5050782;28;20072;-51
2024/03/03 02:07:13;;;;;;;29.63;15.48;;;;;;;;;;5050929;28;20516;-55
2024/03/03 02:09:44;;;;;;;24.27;14.93;;;;;;;;;;5053110;28;20499;-54
2024/03/03 02:12:12;;;;;;;25.13;14.18;;;;;;;;;;5050620;28;20052;-57
2024/03/03 02:14:39;;;;;;;27.13;15.15;;;;;;;;;;5048450;28;20052;-55
2024/03/03 02:17:07;;;;;;;27.50;14.35;;;;;;;;;;5050877;28;20060;-55
2024/03/03 02:19:34;;;;;;;28.92;14.85;;;;;;;;;;5046504;28;20073;-52
2024/03/03 02:22:02;;;;;;;31.13;16.40;;;;;;;;;;5050612;28;20064;-56
2024/03/03 02:24:29;;;;;;;27.33;14.80;;;;;;;;;;5049479;28;20186;-54
2024/03/03 02:26:57;;;;;;;24.98;14.73;;;;;;;;;;5047592;28;20504;-53
2024/03/03 02:29:25;;;;;;;26.80;15.05;;;;;;;;;;5050890;28;20519;-55
2024/03/03 02:31:52;;;;;;;24.98;13.73;;;;;;;;;;5050748;28;20103;-51
2024/03/03 02:34:18;;;;;;;24.67;13.63;;;;;;;;;;5051808;28;20077;-54
2024/03/03 02:36:45;;;;;;;25.75;13.95;;;;;;;;;;5050673;28;20076;-55
2024/03/03 02:39:13;;;;;;;27.35;15.60;;;;;;;;;;5050178;28;20150;-55
2024/03/03 02:41:40;;;;;;;26.65;15.55;;;;;;;;;;5050395;28;20052;-59
2024/03/03 02:44:07;;;;;;;24.77;14.80;;;;;;;;;;5050174;28;20128;-55
2024/03/03 02:46:33;;;;;;;24.05;14.52;;;;;;;;;;5050187;28;20077;-56
2024/03/03 02:49:00;;;;;;;23.85;14.25;;;;;;;;;;5050162;28;20083;-56
2024/03/03 02:51:27;;;;;;;26.25;13.43;;;;;;;;;;5050443;28;20495;-54
2024/03/03 02:53:53;;;;;;;23.65;14.00;;;;;;;;;;5044340;28;20124;-56
2024/03/03 02:56:21;;;;;;;24.08;13.80;;;;;;;;;;5053529;28;20072;-52
2024/03/03 02:58:48;;;;;;;22.67;14.18;;;;;;;;;;5053927;28;20080;-54
2024/03/03 03:01:15;;;;;;;19.98;12.50;;;;;;;;;;5053978;28;20098;-56
2024/03/03 03:03:42;;;;;;;23.48;13.02;;;;;;;;;;5053951;28;20095;-52
2024/03/03 03:06:09;;;;;;;21.55;13.70;;;;;;;;;;5053719;28;20044;-55
2024/03/03 03:08:36;;;;;;;22.60;13.05;;;;;;;;;;5053738;28;20049;-54
2024/03/03 03:11:03;;;;;;;21.05;12.65;;;;;;;;;;5053528;28;20425;-51
2024/03/03 03:13:31;;;;;;;19.83;12.70;;;;;;;;;;5053903;28;20052;-56
2024/03/03 03:15:58;;;;;;;22.77;13.32;;;;;;;;;;5053387;28;20577;-56
2024/03/03 03:18:24;;;;;;;26.83;13.93;;;;;;;;;;5049268;28;20052;-51
2024/03/03 03:20:51;;;;;;;21.02;12.35;;;;;;;;;;5051608;28;20566;-54
2024/03/03 03:23:18;;;;;;;20.35;11.70;;;;;;;;;;5045287;28;20120;-58
2024/03/03 03:25:44;;;;;;;20.13;11.45;;;;;;;;;;5053254;28;20080;-55
2024/03/03 03:28:11;;;;;;;25.27;13.75;;;;;;;;;;5053652;28;20134;-55
2024/03/03 03:30:39;;;;;;;23.88;13.35;;;;;;;;;;5053388;28;20083;-56
2024/03/03 03:33:06;;;;;;;19.63;11.45;;;;;;;;;;5053222;28;20208;-51
2024/03/03 03:35:33;;;;;;;19.95;11.85;;;;;;;;;;5053079;28;20539;-55
2024/03/03 03:38:00;;;;;;;19.58;11.05;;;;;;;;;;5053064;28;20128;-55
2024/03/03 03:40:28;;;;;;;20.60;11.95;;;;;;;;;;5052589;28;20144;-53
2024/03/03 03:42:55;;;;;;;19.48;12.55;;;;;;;;;;5052199;28;20045;-59
2024/03/03 03:45:22;;;;;;;23.77;12.70;;;;;;;;;;5052623;28;20118;-55
2024/03/03 03:47:50;;;;;;;18.88;10.90;;;;;;;;;;5056849;28;20467;-59
2024/03/03 03:50:17;;;;;;;20.92;12.18;;;;;;;;;;5063163;28;20132;-59
2024/03/03 03:52:43;;;;;;;18.83;12.25;;;;;;;;;;5056850;28;20077;-56
2024/03/03 03:55:10;;;;;;;20.85;11.63;;;;;;;;;;5056837;28;20120;-59
2024/03/03 03:57:38;;;;;;;20.45;11.38;;;;;;;;;;5055351;28;20081;-60
2024/03/03 04:00:06;;;;;;;19.25;11.45;;;;;;;;;;5056492;28;20159;-60
2024/03/03 04:02:32;;;;;;;19.88;10.82;;;;;;;;;;5054426;28;20075;-60
2024/03/03 04:05:01;;;;;;;17.75;11.23;;;;;;;;;;5048348;28;20108;-59
2024/03/03 04:07:27;;;;;;;19.83;11.10;;;;;;;;;;5053654;28;20469;-59
2024/03/03 04:09:54;;;;;;;20.15;11.70;;;;;;;;;;5050056;28;20076;-59
2024/03/03 04:12:21;;;;;;;19.92;10.93;;;;;;;;;;5052675;28;20080;-55
2024/03/03 04:14:47;;;;;;;21.95;11.60;;;;;;;;;;5052387;28;20084;-60
2024/03/03 04:17:14;;;;;;;17.40;9.90;;;;;;;;;;5052538;28;20124;-60
2024/03/03 04:19:41;;;;;;;20.90;10.73;;;;;;;;;;5052369;28;20084;-58
2024/03/03 04:22:09;;;;;;;21.23;12.18;;;;;;;;;;5052484;28;20083;-59
2024/03/03 04:24:35;;;;;;;20.05;10.45;;;;;;;;;;5051818;28;20083;-58
2024/03/03 04:27:03;;;;;;;18.58;10.68;;;;;;;;;;5052251;28;20122;-60
2024/03/03 04:29:30;;;;;;;20.88;11.90;;;;;;;;;;5052204;28;20550;-60
2024/03/03 04:31:57;;;;;;;20.90;11.43;;;;;;;;;;5052248;28;20045;-60
2024/03/03 04:34:25;;;;;;;18.42;10.73;;;;;;;;;;5051792;28;20124;-60
2024/03/03 04:36:52;;;;;;;17.88;10.45;;;;;;;;;;5052137;28;20091;-58
2024/03/03 04:39:20;;;;;;;16.05;9.30;;;;;;;;;;5044365;28;20085;-60
2024/03/03 04:41:48;;;;;;;17.63;10.80;;;;;;;;;;5052353;28;20083;-59
2024/03/03 04:44:14;;;;;;;16.08;9.82;;;;;;;;;;5053319;28;20041;-60
2024/03/03 04:46:41;;;;;;;17.50;10.10;;;;;;;;;;5052067;28;20099;-60
2024/03/03 04:49:08;;;;;;;17.52;9.90;;;;;;;;;;5051928;28;20069;-59
2024/03/03 04:51:34;;;;;;;20.70;11.18;;;;;;;;;;5051851;28;20436;-56
2024/03/03 04:54:02;;;;;;;18.73;11.27;;;;;;;;;;5051798;28;20072;-59
2024/03/03 04:56:30;;;;;;;19.48;10.90;;;;;;;;;;5051845;28;20538;-59
2024/03/03 04:58:57;;;;;;;19.00;10.25;;;;;;;;;;5051558;28;20052;-59
2024/03/03 05:01:24;;;;;;;15.90;10.23;;;;;;;;;;5052500;28;20055;-60
2024/03/03 05:03:51;;;;;;;16.08;10.50;;;;;;;;;;5051127;28;20515;-57
2024/03/03 05:06:18;;;;;;;18.98;9.88;;;;;;;;;;5051356;28;20140;-60
2024/03/03 05:08:45;;;;;;;17.55;10.32;;;;;;;;;;5061249;28;20075;-59
2024/03/03 05:11:11;;;;;;;16.00;10.00;;;;;;;;;;5049020;28;20045;-55
2024/03/03 05:13:39;;;;;;;18.63;9.98;;;;;;;;;;5051687;28;20085;-59
2024/03/03 05:16:08;;;;;;;19.58;11.50;;;;;;;;;;5051695;28;20426;-59
2024/03/03 05:18:34;;;;;;;16.65;10.07;;;;;;;;;;5051180;28;20131;-59
2024/03/03 05:21:01;;;;;;;16.75;10.23;;;;;;;;;;5047423;28;20072;-60
2024/03/03 05:23:28;;;;;;;16.77;9.45;;;;;;;;;;5051532;28;20069;-56
2024/03/03 05:25:54;;;;;;;20.90;10.10;;;;;;;;;;5051387;28;20486;-60
2024/03/03 05:28:21;;;;;;;17.65;9.63;;;;;;;;;;5051527;28;20041;-60
2024/03/03 05:30:49;;;;;;;16.95;9.88;;;;;;;;;;5049446;28;20501;-60
2024/03/03 05:33:16;;;;;;;18.02;9.73;;;;;;;;;;5043177;28;20543;-59
2024/03/03 05:35:43;;;;;;;17.70;9.93;;;;;;;;;;5051349;28;20140;-60
2024/03/03 05:38:09;;;;;;;15.80;9.10;;;;;;;;;;5051400;28;20076;-60
2024/03/03 05:40:36;;;;;;;17.65;10.05;;;;;;;;;;5051307;28;20080;-60
2024/03/03 05:43:03;;;;;;;17.42;9.75;;;;;;;;;;5050875;28;20096;-57
2024/03/03 05:45:29;;;;;;;16.55;8.98;;;;;;;;;;5051061;28;20052;-57
2024/03/03 05:47:57;;;;;;;14.48;9.18;;;;;;;;;;5051352;28;20084;-59
2024/03/03 05:50:24;;;;;;;16.20;9.35;;;;;;;;;;5051329;28;20131;-60
2024/03/03 05:52:51;;;;;;;17.08;9.65;;;;;;;;;;5050145;28;20135;-60
2024/03/03 05:55:18;;;;;;;15.35;9.00;;;;;;;;;;5050998;28;20461;-60
2024/03/03 05:57:46;;;;;;;19.77;10.63;;;;;;;;;;5051293;28;20059;-54
2024/03/03 06:00:14;;;;;;;17.27;9.75;;;;;;;;;;5051023;28;20052;-52
2024/03/03 06:02:41;;;;;;;16.75;9.98;;;;;;;;;;5049593;28;20134;-51
2024/03/03 06:05:09;;;;;;;18.40;9.68;;;;;;;;;;5049199;28;20119;-56
2024/03/03 06:07:36;;;;;;;16.92;9.85;;;;;;;;;;5051365;28;20504;-57
2024/03/03 06:10:04;;;;;;;18.45;9.65;;;;;;;;;;5051262;28;20556;-55
2024/03/03 06:12:31;;;;;;;16.63;9.75;;;;;;;;;;5049921;28;20765;-56
2024/03/03 06:14:57;;;;;;;16.95;9.75;;;;;;;;;;5050332;28;20079;-58
2024/03/03 06:17:24;;;;;;;18.65;9.70;;;;;;;;;;5050986;28;20087;-55
2024/03/03 06:19:53;;;;;;;13.25;8.65;;;;;;;;;;5050807;28;20487;-54
2024/03/03 06:22:21;;;;;;;17.63;9.43;;;;;;;;;;5042758;28;20049;-54
2024/03/03 06:24:48;;;;;;;16.83;9.65;;;;;;;;;;5047826;28;20073;-52
2024/03/03 06:27:15;;;;;;;15.30;8.57;;;;;;;;;;5050971;28;20135;-57
2024/03/03 06:29:41;;;;;;;20.20;10.00;;;;;;;;;;5052882;28;20083;-55
2024/03/03 06:32:08;;;;;;;16.77;8.90;;;;;;;;;;5054342;28;20128;-56
2024/03/03 06:34:35;;;;;;;15.43;8.52;;;;;;;;;;5046988;28;20076;-54
2024/03/03 06:37:02;;;;;;;15.50;7.90;;;;;;;;;;5054602;28;20126;-57
2024/03/03 06:39:30;;;;;;;16.50;8.70;;;;;;;;;;5056968;28;20076;-57
2024/03/03 06:41:57;;;;;;;16.73;9.43;;;;;;;;;;5055665;28;20091;-57
2024/03/03 06:44:24;;;;;;;13.80;8.05;;;;;;;;;;5050720;28;20091;-56
2024/03/03 06:46:50;;;;;;;14.73;8.70;;;;;;;;;;5054725;28;20131;-53
2024/03/03 06:49:17;;;;;;;14.57;8.40;;;;;;;;;;5054323;28;20129;-55
2024/03/03 06:51:44;;;;;;;14.48;8.07;;;;;;;;;;5054498;28;20497;-56
2024/03/03 06:54:12;;;;;;;14.80;8.00;;;;;;;;;;5053839;28;20106;-56
2024/03/03 06:56:40;;;;;;;13.68;8.32;;;;;;;;;;5054184;28;20524;-52
2024/03/03 06:59:07;;;;;;;14.90;7.43;;;;;;;;;;5054464;28;20087;-57
2024/03/03 07:01:33;;;;;;;14.88;8.40;;;;;;;;;;5054238;28;20049;-57
2024/03/03 07:04:18;;;;;;;13.30;7.25;;;;;;;;;;5052390;28;20057;-57
2024/03/03 07:06:45;;;;;;;12.02;7.47;;;;;;;;;;5054225;28;20048;-55
2024/03/03 07:09:11;;;;;;;14.98;8.50;;;;;;;;;;5054091;28;20076;-57
2024/03/03 07:11:39;;;;;;;15.40;7.65;;;;;;;;;;5054083;28;20077;-56
2024/03/03 07:14:06;;;;;;;11.68;6.93;;;;;;;;;;5053922;28;20087;-54
2024/03/03 07:16:33;;;;;;;14.25;7.18;;;;;;;;;;5047550;28;20084;-58
2024/03/03 07:18:58;;;;;;;14.57;6.97;;;;;;;;;;5053733;28;20513;-55
2024/03/03 07:21:25;;;;;;;13.82;7.35;;;;;;;;;;5053865;28;20076;-54
2024/03/03 07:23:52;;;;;;;12.90;7.00;;;;;;;;;;5053715;28;20087;-56
2024/03/03 07:26:18;;;;;;;13.02;7.40;;;;;;;;;;5050031;28;20072;-58
2024/03/03 07:28:47;;;;;;;11.63;6.78;;;;;;;;;;5053833;28;20073;-56
2024/03/03 07:31:13;;;;;;;11.35;6.38;;;;;;;;;;5053733;28;20110;-56
2024/03/03 07:33:40;;;;;;;9.57;5.57;;;;;;;;;;5053256;28;20670;-56
2024/03/03 07:36:07;;;;;;;10.95;5.75;;;;;;;;;;5051518;28;20040;-54
2024/03/03 07:38:35;;;;;;;9.25;5.97;;;;;;;;;;5053264;28;20059;-56
2024/03/03 07:41:02;;;;;;;9.98;6.25;;;;;;;;;;5056818;28;20071;-55
2024/03/03 07:43:29;;;;;;;9.98;5.72;;;;;;;;;;5055748;28;20106;-53
2024/03/03 07:45:57;;;;;;;9.30;5.18;;;;;;;;;;5055129;28;20523;-53
2024/03/03 07:48:23;;;;;;;8.85;4.95;;;;;;;;;;5056625;28;20555;-52
2024/03/03 07:50:50;;;;;;;10.00;5.43;;;;;;;;;;5056111;28;20107;-55
2024/03/03 07:53:17;;;;;;;10.77;5.43;;;;;;;;;;5053376;28;20079;-56
2024/03/03 07:55:44;;;;;;;10.05;5.15;;;;;;;;;;5052321;28;20119;-55
2024/03/03 07:58:11;;;;;;;8.60;4.88;;;;;;;;;;5052780;28;20048;-55
2024/03/03 08:00:37;;;;;;;7.75;4.00;;;;;;;;;;5052717;28;20057;-57
2024/03/03 08:03:07;;;;;;;7.97;4.10;;;;;;;;;;5055410;28;20081;-55
2024/03/03 08:05:34;;;;;;;7.68;4.10;;;;;;;;;;5052331;28;20067;-55
2024/03/03 08:08:02;;;;;;;7.82;3.80;;;;;;;;;;5044583;28;20073;-57
2024/03/03 08:10:28;;;;;;;7.40;3.55;;;;;;;;;;5053066;28;20049;-56
2024/03/03 08:12:55;;;;;;;7.07;4.47;;;;;;;;;;5051976;28;20080;-57
2024/03/03 08:15:23;;;;;;;8.13;3.45;;;;;;;;;;5052478;28;20119;-54
2024/03/03 08:17:49;;;;;;;6.65;4.05;;;;;;;;;;5049648;28;20084;-55
2024/03/03 08:20:19;;;;;;;6.68;3.28;;;;;;;;;;5052680;28;20083;-55
2024/03/03 08:22:46;;;;;;;5.73;3.13;;;;;;;;;;5052677;28;20045;-54
2024/03/03 08:25:14;;;;;;;5.70;3.10;;;;;;;;;;5052095;28;20081;-55
2024/03/03 08:27:41;;;;;;;6.40;3.35;;;;;;;;;;5052626;28;20080;-56
2024/03/03 08:30:11;;;;;;;6.57;3.15;;;;;;;;;;5050979;28;20463;-56
2024/03/03 08:32:39;;;;;;;5.47;2.83;;;;;;;;;;5057797;28;20144;-55
2024/03/03 08:35:06;;;;;;;5.97;2.78;;;;;;;;;;5052146;28;20131;-57
2024/03/03 08:37:34;;;;;;;6.50;3.00;;;;;;;;;;5046033;28;20132;-57
2024/03/03 08:40:04;;;;;;;5.45;3.05;;;;;;;;;;5049664;28;20230;-55
2024/03/03 08:42:31;;;;;;;6.32;3.40;;;;;;;;;;5053849;28;20514;-54
2024/03/03 08:44:57;;;;;;;5.38;3.15;;;;;;;;;;5050878;28;20476;-52
2024/03/03 08:47:24;;;;;;;6.68;3.60;;;;;;;;;;5052569;28;20106;-56
2024/03/03 08:49:51;;;;;;;6.22;3.20;;;;;;;;;;5052650;28;20107;-53
2024/03/03 08:52:18;;;;;;;5.65;3.50;;;;;;;;;;5051978;28;20095;-56
2024/03/03 08:54:46;;;;;;;5.50;3.17;;;;;;;;;;5052070;28;20080;-53
2024/03/03 08:57:13;;;;;;;5.97;3.83;;;;;;;;;;5052738;28;20135;-55
2024/03/03 08:59:40;;;;;;;5.15;3.00;;;;;;;;;;5052731;28;20533;-54
2024/03/03 09:02:06;;;;;;;5.78;3.10;;;;;;;;;;5054121;28;20053;-56
2024/03/03 09:04:37;;;;;;;5.45;2.85;;;;;;;;;;5054049;28;20068;-55
2024/03/03 09:07:05;;;;;;;8.95;3.95;;;;;;;;;;5055184;28;20508;-57
2024/03/03 09:09:32;;;;;;;6.40;3.83;;;;;;;;;;5045280;28;20445;-53
2024/03/03 09:12:00;;;;;;;6.18;3.45;;;;;;;;;;5051768;28;20080;-56
2024/03/03 09:14:27;;;;;;;6.80;3.88;;;;;;;;;;5051432;28;20073;-55
2024/03/03 09:16:53;;;;;;;7.35;3.95;;;;;;;;;;5048924;28;20102;-53
2024/03/03 09:19:20;;;;;;;7.25;4.43;;;;;;;;;;5052848;28;20076;-52
2024/03/03 09:21:47;;;;;;;6.82;4.07;;;;;;;;;;5051524;28;20106;-56
2024/03/03 09:24:14;;;;;;;7.00;4.10;;;;;;;;;;5053211;28;20512;-54
2024/03/03 09:26:40;;;;;;;6.57;3.95;;;;;;;;;;5051614;28;20120;-53
2024/03/03 09:29:08;;;;;;;7.82;4.82;;;;;;;;;;5051713;28;20084;-53
2024/03/03 09:31:35;;;;;;;6.10;3.40;;;;;;;;;;5051540;28;20076;-55
2024/03/03 09:34:02;;;;;;;7.50;3.85;;;;;;;;;;5051082;28;20132;-55
2024/03/03 09:36:29;;;;;;;6.63;3.47;;;;;;;;;;5050703;28;20060;-54
2024/03/03 09:38:55;;;;;;;6.53;3.70;;;;;;;;;;5051578;28;20068;-55
2024/03/03 09:41:22;;;;;;;6.07;3.13;;;;;;;;;;5057608;28;20136;-56
2024/03/03 09:43:51;;;;;;;5.38;3.00;;;;;;;;;;5055252;28;20041;-50
2024/03/03 09:46:20;;;;;;;5.75;2.83;;;;;;;;;;5054379;28;20052;-64
2024/03/03 09:48:47;;;;;;;5.60;2.95;;;;;;;;;;5053040;28;20554;-56
2024/03/03 09:51:14;;;;;;;9.32;4.82;;;;;;;;;;5055889;28;20143;-54
2024/03/03 09:53:41;;;;;;;8.27;4.85;;;;;;;;;;5057993;28;20487;-54
2024/03/03 09:56:10;;;;;;;7.35;3.72;;;;;;;;;;5051913;28;20568;-55
2024/03/03 09:58:36;;;;;;;6.35;3.72;;;;;;;;;;5051984;28;20476;-52
2024/03/03 10:01:06;;;;;;;5.72;3.85;;;;;;;;;;5052187;28;20153;-56
2024/03/03 10:03:36;;;;;;;7.20;3.78;;;;;;;;;;5051070;28;20077;-56
2024/03/03 10:06:08;;;;;;;10.90;5.90;;;;;;;;;;5065271;28;20102;-53
2024/03/03 10:08:37;;;;;;;18.17;7.93;;;;;;;;;;5059159;28;20564;-56
2024/03/03 10:11:07;;;;;;;12.30;7.72;;;;;;;;;;5055622;28;20077;-56
2024/03/03 10:13:34;;;;;;;8.60;5.13;;;;;;;;;;5058356;28;20548;-54
2024/03/03 10:16:02;;;;;;;7.03;4.45;;;;;;;;;;5058284;28;20504;-53
2024/03/03 10:18:29;;;;;;;8.05;4.78;;;;;;;;;;5055143;28;20116;-51
2024/03/03 10:20:57;;;;;;;6.47;3.95;;;;;;;;;;5055005;28;20088;-55
2024/03/03 10:23:24;;;;;;;7.07;4.00;;;;;;;;;;5054971;28;20119;-53
2024/03/03 10:25:55;;;;;;;6.35;3.83;;;;;;;;;;5054366;28;20081;-56
2024/03/03 10:28:21;;;;;;;9.23;5.65;;;;;;;;;;5054991;28;20076;-53
2024/03/03 10:30:48;;;;;;;5.97;3.53;;;;;;;;;;5055279;28;20083;-57
2024/03/03 10:33:15;;;;;;;7.75;3.67;;;;;;;;;;5054842;28;20091;-58
2024/03/03 10:35:42;;;;;;;6.68;3.75;;;;;;;;;;5054329;28;20176;-58
2024/03/03 10:38:11;;;;;;;7.00;3.92;;;;;;;;;;5054899;28;20052;-58
2024/03/03 10:40:38;;;;;;;6.50;3.55;;;;;;;;;;5054828;28;20053;-55
2024/03/03 10:43:05;;;;;;;5.53;3.40;;;;;;;;;;5054662;28;20051;-56
2024/03/03 10:45:32;;;;;;;6.13;3.53;;;;;;;;;;5054701;28;20041;-55
2024/03/03 10:47:59;;;;;;;5.38;3.33;;;;;;;;;;5054859;28;20081;-58
2024/03/03 10:50:26;;;;;;;7.07;3.33;;;;;;;;;;5054506;28;20080;-56
2024/03/03 10:52:54;;;;;;;5.22;2.95;;;;;;;;;;5054676;28;20079;-58
2024/03/03 10:55:24;;;;;;;4.85;2.92;;;;;;;;;;5054155;28;20106;-55
2024/03/03 10:57:53;;;;;;;5.57;3.28;;;;;;;;;;5054998;28;20465;-56
2024/03/03 11:00:24;;;;;;;4.13;2.47;;;;;;;;;;5054466;28;20087;-57
2024/03/03 11:02:52;;;;;;;5.72;2.58;;;;;;;;;;5054525;28;20049;-58
2024/03/03 11:05:20;;;;;;;5.03;2.33;;;;;;;;;;5053968;28;20084;-55
2024/03/03 11:07:47;;;;;;;4.68;2.15;;;;;;;;;;5054165;28;20141;-58
2024/03/03 11:10:15;;;;;;;3.85;1.75;;;;;;;;;;5054254;28;20055;-58
2024/03/03 11:12:45;;;;;;;3.33;1.60;;;;;;;;;;5054338;28;20064;-56
2024/03/03 11:15:13;;;;;;;3.55;1.70;;;;;;;;;;5053436;28;20041;-54
2024/03/03 11:17:45;;;;;;;3.92;1.70;;;;;;;;;;5054497;28;20114;-58
2024/03/03 11:20:18;;;;;;;3.15;1.30;;;;;;;;;;5053884;28;20045;-55
2024/03/03 11:22:54;;;;;;;3.58;1.70;;;;;;;;;;5053321;28;20142;-57
2024/03/03 11:25:23;;;;;;;3.65;1.58;;;;;;;;;;5045660;28;20143;-56
2024/03/03 11:27:56;;;;;;;3.40;1.45;;;;;;;;;;5053905;28;20107;-57
2024/03/03 11:30:23;;;;;;;3.50;1.50;;;;;;;;;;5054073;28;20073;-58
2024/03/03 11:32:51;;;;;;;4.03;1.50;;;;;;;;;;5053436;28;20049;-56
2024/03/03 11:35:19;;;;;;;4.85;2.03;;;;;;;;;;5053277;28;20049;-58
2024/03/03 11:37:46;;;;;;;3.60;1.40;;;;;;;;;;5053803;28;20091;-58
2024/03/03 11:40:16;;;;;;;3.50;1.50;;;;;;;;;;5053914;28;20077;-54
2024/03/03 11:42:46;;;;;;;3.60;1.35;;;;;;;;;;5053940;28;20053;-58
2024/03/03 11:45:14;;;;;;;3.85;1.45;;;;;;;;;;5053537;28;20087;-55
2024/03/03 11:47:47;;;;;;;3.35;1.50;;;;;;;;;;5053923;28;20489;-58
2024/03/03 11:50:19;;;;;;;3.25;1.67;;;;;;;;;;5053566;28;20050;-58
2024/03/03 11:52:46;;;;;;;2.42;1.30;;;;;;;;;;5053861;28;20389;-54
2024/03/03 11:55:16;;;;;;;2.53;1.17;;;;;;;;;;5053139;28;20103;-59
2024/03/03 11:57:45;;;;;;;3.47;1.83;;;;;;;;;;5053643;28;20080;-58
2024/03/03 12:00:17;;;;;;;3.55;1.05;;;;;;;;;;5053375;28;20081;-57
2024/03/03 12:02:44;;;;;;;4.40;1.23;;;;;;;;;;5053276;28;20065;-57
2024/03/03 12:05:12;;;;;;;2.20;1.08;;;;;;;;;;5052982;28;20484;-57
2024/03/03 12:07:43;;;;;;;2.63;1.30;;;;;;;;;;5053412;28;20041;-57
2024/03/03 12:10:15;;;;;;;2.88;1.02;;;;;;;;;;5053237;28;20446;-58
2024/03/03 12:12:45;;;;;;;2.80;1.10;;;;;;;;;;5053094;28;20052;-58
2024/03/03 12:15:11;;;;;;;3.27;1.23;;;;;;;;;;5052597;28;20135;-56
2024/03/03 12:17:41;;;;;;;2.50;1.00;;;;;;;;;;5053124;28;20317;-54
2024/03/03 12:20:09;;;;;;;3.45;1.15;;;;;;;;;;5052775;28;20092;-57
2024/03/03 12:22:36;;;;;;;2.53;0.85;;;;;;;;;;5052147;28;20058;-56
2024/03/03 12:25:03;;;;;;;3.30;1.02;;;;;;;;;;5052554;28;20053;-53
2024/03/03 12:27:30;;;;;;;3.80;1.10;;;;;;;;;;5052090;28;20489;-57
2024/03/03 12:30:00;;;;;;;3.35;1.25;;;;;;;;;;5052564;28;20084;-58
2024/03/03 12:32:28;;;;;;;4.07;1.27;;;;;;;;;;5052767;28;20049;-55
2024/03/03 12:34:57;;;;;;;2.38;1.08;;;;;;;;;;5052144;28;20049;-56
2024/03/03 12:37:24;;;;;;;2.63;1.25;;;;;;;;;;5052449;28;20045;-57
2024/03/03 12:39:52;;;;;;;2.92;1.60;;;;;;;;;;5052545;28;20049;-56
2024/03/03 12:42:19;;;;;;;1.67;0.93;;;;;;;;;;5051913;28;20186;-55
2024/03/03 12:44:46;;;;;;;2.70;1.10;;;;;;;;;;5052317;28;20166;-54
2024/03/03 12:47:14;;;;;;;2.92;1.20;;;;;;;;;;5052318;28;20084;-56
2024/03/03 12:49:42;;;;;;;3.97;1.13;;;;;;;;;;5052400;28;20045;-57
2024/03/03 12:52:11;;;;;;;2.50;1.17;;;;;;;;;;5052162;28;20084;-59
2024/03/03 12:54:39;;;;;;;3.35;1.27;;;;;;;;;;5052120;28;20099;-53
2024/03/03 12:57:06;;;;;;;2.90;1.10;;;;;;;;;;5051960;28;20171;-57
2024/03/03 12:59:33;;;;;;;2.20;0.93;;;;;;;;;;5051908;28;20045;-56
2024/03/03 13:02:00;;;;;;;4.15;1.40;;;;;;;;;;5052001;28;20135;-57
2024/03/03 13:04:29;;;;;;;3.53;1.30;;;;;;;;;;5051899;28;20052;-54
2024/03/03 13:06:58;;;;;;;2.22;1.33;;;;;;;;;;5052216;28;20480;-54
2024/03/03 13:09:28;;;;;;;4.38;1.67;;;;;;;;;;5051723;28;20110;-56
2024/03/03 13:11:56;;;;;;;4.82;1.60;;;;;;;;;;5052366;28;20550;-53
2024/03/03 13:14:23;;;;;;;7.10;2.20;;;;;;;;;;5051668;28;20076;-58
2024/03/03 13:17:05;;;;;;;3.22;1.10;;;;;;;;;;5051683;28;20053;-58
2024/03/03 13:19:45;;;;;;;3.00;0.95;;;;;;;;;;5043333;28;20076;-56
2024/03/03 13:22:12;;;;;;;1.98;1.05;;;;;;;;;;5050824;28;20099;-57
2024/03/03 13:24:57;;;;;;;1.98;1.10;;;;;;;;;;5051748;28;20461;-57
2024/03/03 13:27:25;;;;;;;2.83;1.20;;;;;;;;;;5043948;28;20051;-60
2024/03/03 13:29:52;;;;;;;4.57;1.30;;;;;;;;;;5051605;28;20099;-57
2024/03/03 13:32:19;;;;;;;6.45;1.40;;;;;;;;;;5051436;28;20106;-57
2024/03/03 13:34:46;;;;;;;1.88;0.80;;;;;;;;;;5051346;28;20076;-55
2024/03/03 13:37:13;;;;;;;1.67;0.80;;;;;;;;;;5051086;28;20484;-56
2024/03/03 13:39:40;;;;;;;3.20;1.00;;;;;;;;;;5051294;28;20136;-54
2024/03/03 13:42:10;;;;;;;1.67;0.80;;;;;;;;;;5051347;28;20081;-54
2024/03/03 13:44:40;;;;;;;2.50;1.00;;;;;;;;;;5051007;28;20049;-55
2024/03/03 13:47:06;;;;;;;1.47;0.70;;;;;;;;;;5051296;28;20309;-55
2024/03/03 13:49:34;;;;;;;4.05;1.58;;;;;;;;;;5051635;28;20281;-56
2024/03/03 13:52:00;;;;;;;2.63;1.20;;;;;;;;;;5051157;28;20045;-57
2024/03/03 13:54:27;;;;;;;3.10;1.10;;;;;;;;;;5051162;28;20428;-54
2024/03/03 13:56:54;;;;;;;2.17;1.10;;;;;;;;;;5051115;28;20099;-58
2024/03/03 13:59:22;;;;;;;3.13;0.90;;;;;;;;;;5051099;28;20076;-58
2024/03/03 14:01:49;;;;;;;3.05;1.20;;;;;;;;;;5050927;28;20049;-58
2024/03/03 14:04:16;;;;;;;2.75;1.00;;;;;;;;;;5051179;28;20080;-57
2024/03/03 14:06:42;;;;;;;2.17;1.00;;;;;;;;;;5051230;28;20133;-56
2024/03/03 14:09:10;;;;;;;3.60;0.90;;;;;;;;;;5051687;28;20467;-58
2024/03/03 14:11:37;;;;;;;2.25;0.95;;;;;;;;;;5051133;28;20057;-55
2024/03/03 14:14:04;;;;;;;1.95;0.90;;;;;;;;;;5051213;28;20139;-57
2024/03/03 14:16:32;;;;;;;5.57;1.25;;;;;;;;;;5051087;28;20052;-55
2024/03/03 14:18:58;;;;;;;2.38;1.00;;;;;;;;;;5050831;28;20270;-56
2024/03/03 14:21:25;;;;;;;3.45;1.15;;;;;;;;;;5050835;28;20045;-55
2024/03/03 14:23:52;;;;;;;3.10;1.02;;;;;;;;;;5050284;28;20461;-56
2024/03/03 14:26:20;;;;;;;2.10;1.00;;;;;;;;;;5050784;28;20133;-57
2024/03/03 14:28:48;;;;;;;3.08;1.15;;;;;;;;;;5051063;28;20167;-56
2024/03/03 14:31:15;;;;;;;3.20;1.20;;;;;;;;;;5051295;28;20455;-57
2024/03/03 14:33:44;;;;;;;3.67;1.35;;;;;;;;;;5050899;28;20120;-55